Time;durP1;ratioP1;P1;durP2;ratioP2;P2;SDS_P1;SDS_P2;PMS_P1;PMS_P2;Temp;Humidity;BMP_temperature;BMP_pressure;BME280_temperature;BME280_humidity;BME280_pressure;Samples;Min_cycle;Max_cycle;Signal;HPM_P1;HPM_P2
2022/10/27 00:01:10;;;;;;;16.23;6.32;;;14.80;99.90;;;;;;5035976;28;20069;-60
2022/10/27 00:03:36;;;;;;;19.88;5.90;;;14.80;99.90;;;;;;5052473;28;20045;-60
2022/10/27 00:06:03;;;;;;;15.27;5.50;;;14.80;99.90;;;;;;5057059;28;20041;-60
2022/10/27 00:08:30;;;;;;;17.73;6.07;;;14.80;99.90;;;;;;5057060;28;20040;-60
2022/10/27 00:10:57;;;;;;;15.32;5.13;;;14.80;99.90;;;;;;5055735;28;20053;-61
2022/10/27 00:13:23;;;;;;;17.45;4.93;;;14.80;99.90;;;;;;5055968;28;20103;-61
2022/10/27 00:15:50;;;;;;;14.35;4.18;;;14.80;99.90;;;;;;5055078;28;20047;-60
2022/10/27 00:18:17;;;;;;;12.65;4.00;;;14.80;99.90;;;;;;5041771;28;20048;-61
2022/10/27 00:20:43;;;;;;;17.20;4.20;;;14.80;99.90;;;;;;5037265;28;20448;-61
2022/10/27 00:23:10;;;;;;;14.77;4.07;;;14.70;99.90;;;;;;5037044;28;20469;-61
2022/10/27 00:25:37;;;;;;;15.77;3.55;;;14.70;99.90;;;;;;5036636;28;20103;-61
2022/10/27 00:28:03;;;;;;;11.57;3.50;;;14.70;99.90;;;;;;5036910;28;20041;-61
2022/10/27 00:30:30;;;;;;;15.07;3.55;;;14.70;99.90;;;;;;5036916;28;20103;-61
2022/10/27 00:32:57;;;;;;;11.18;3.20;;;14.70;99.90;;;;;;5036637;28;20362;-60
2022/10/27 00:35:23;;;;;;;8.95;3.10;;;14.70;99.90;;;;;;5052667;28;20037;-61
2022/10/27 00:37:50;;;;;;;15.63;3.80;;;14.70;99.90;;;;;;5056938;28;20149;-61
2022/10/27 00:40:17;;;;;;;18.63;3.58;;;14.70;99.90;;;;;;5056454;28;20047;-61
2022/10/27 00:42:44;;;;;;;11.70;3.25;;;14.70;99.90;;;;;;5043999;28;20044;-62
2022/10/27 00:45:11;;;;;;;13.50;3.35;;;14.70;99.90;;;;;;5036412;28;20405;-59
2022/10/27 00:47:37;;;;;;;8.93;3.03;;;14.70;99.90;;;;;;5036729;28;20045;-61
2022/10/27 00:50:04;;;;;;;11.45;3.42;;;14.70;99.90;;;;;;5039844;28;20068;-60
2022/10/27 00:52:31;;;;;;;13.30;3.40;;;14.70;99.90;;;;;;5055069;28;20045;-61
2022/10/27 00:54:58;;;;;;;9.45;2.92;;;14.70;99.90;;;;;;5056076;28;20065;-60
2022/10/27 00:57:24;;;;;;;12.00;3.03;;;14.70;99.90;;;;;;5056255;28;20198;-60
2022/10/27 00:59:51;;;;;;;17.13;3.78;;;14.70;99.90;;;;;;5055751;28;20068;-60
2022/10/27 01:02:18;;;;;;;10.88;3.38;;;14.70;99.90;;;;;;5056039;28;20044;-60
2022/10/27 01:04:44;;;;;;;11.80;3.38;;;14.70;99.90;;;;;;5054546;28;20437;-60
2022/10/27 01:07:11;;;;;;;14.65;3.10;;;14.70;99.90;;;;;;5049565;28;20071;-61
2022/10/27 01:09:38;;;;;;;12.00;3.13;;;14.70;99.90;;;;;;5035799;28;20055;-62
2022/10/27 01:12:05;;;;;;;12.57;3.83;;;14.70;99.90;;;;;;5036152;28;20155;-61
2022/10/27 01:14:31;;;;;;;13.60;3.60;;;14.70;99.90;;;;;;5034374;28;20072;-63
2022/10/27 01:16:58;;;;;;;13.93;4.05;;;14.70;99.90;;;;;;5036053;28;20069;-62
2022/10/27 01:19:25;;;;;;;11.88;3.33;;;14.70;99.90;;;;;;5046340;28;20061;-62
2022/10/27 01:21:51;;;;;;;15.23;3.35;;;14.70;99.90;;;;;;5055170;28;20087;-62
2022/10/27 01:24:18;;;;;;;11.68;3.53;;;14.60;99.90;;;;;;5055873;28;20059;-62
2022/10/27 01:26:45;;;;;;;16.38;3.88;;;14.60;99.90;;;;;;5044295;28;20120;-62
2022/10/27 01:29:12;;;;;;;10.82;3.60;;;14.70;99.90;;;;;;5034314;28;20124;-62
2022/10/27 01:31:38;;;;;;;16.63;3.78;;;14.70;99.90;;;;;;5035646;28;20050;-63
2022/10/27 01:34:11;;;;;;;11.90;3.63;;;14.70;99.90;;;;;;5035514;28;20049;-61
2022/10/27 01:36:38;;;;;;;13.85;4.15;;;14.70;99.90;;;;;;5035737;28;20045;-61
2022/10/27 01:39:04;;;;;;;19.00;4.05;;;14.60;99.90;;;;;;5035508;28;20041;-62
2022/10/27 01:41:31;;;;;;;12.80;3.95;;;14.70;99.90;;;;;;5035275;28;20087;-62
2022/10/27 01:43:58;;;;;;;12.55;4.50;;;14.70;99.90;;;;;;5035672;28;20046;-62
2022/10/27 01:46:25;;;;;;;17.17;4.68;;;14.70;99.90;;;;;;5050716;28;20049;-62
2022/10/27 01:48:51;;;;;;;13.57;4.95;;;14.70;99.90;;;;;;5055246;28;20116;-62
2022/10/27 01:51:18;;;;;;;12.93;4.32;;;14.70;99.90;;;;;;5054986;28;20120;-62
2022/10/27 01:53:45;;;;;;;16.98;5.13;;;14.70;99.90;;;;;;5054765;28;20056;-62
2022/10/27 01:56:11;;;;;;;15.57;4.63;;;14.70;99.90;;;;;;5054782;28;20037;-61
2022/10/27 01:58:38;;;;;;;11.40;4.30;;;14.70;99.90;;;;;;5055459;28;20041;-63
2022/10/27 02:01:05;;;;;;;13.70;4.28;;;14.60;99.90;;;;;;5054699;28;20061;-63
2022/10/27 02:03:32;;;;;;;14.48;4.10;;;14.60;99.90;;;;;;5053870;28;20492;-62
2022/10/27 02:05:59;;;;;;;9.35;3.83;;;14.60;99.90;;;;;;5049479;28;20068;-59
2022/10/27 02:08:25;;;;;;;12.27;3.70;;;14.60;99.90;;;;;;5034915;28;20033;-62
2022/10/27 02:10:52;;;;;;;11.07;3.90;;;14.60;99.90;;;;;;5034313;28;20111;-62
2022/10/27 02:13:19;;;;;;;10.32;3.80;;;14.60;99.90;;;;;;5034723;28;20045;-62
2022/10/27 02:15:45;;;;;;;13.27;3.22;;;14.60;99.90;;;;;;5035020;28;20068;-62
2022/10/27 02:18:12;;;;;;;10.85;3.55;;;14.60;99.90;;;;;;5034444;28;20072;-63
2022/10/27 02:20:39;;;;;;;10.35;3.35;;;14.60;99.90;;;;;;5034555;28;20056;-62
2022/10/27 02:23:08;;;;;;;18.80;3.53;;;14.60;99.90;;;;;;5035975;28;20084;-62
2022/10/27 02:25:35;;;;;;;11.48;3.38;;;14.60;99.90;;;;;;5037695;28;20040;-62
2022/10/27 02:28:02;;;;;;;15.65;3.67;;;14.50;99.90;;;;;;5054920;28;20048;-62
2022/10/27 02:30:28;;;;;;;14.05;3.88;;;14.50;99.90;;;;;;5054772;28;20132;-62
2022/10/27 02:32:55;;;;;;;15.32;3.47;;;14.50;99.90;;;;;;5054645;28;20140;-62
2022/10/27 02:35:22;;;;;;;10.48;3.25;;;14.50;99.90;;;;;;5054383;28;20041;-62
2022/10/27 02:37:48;;;;;;;12.43;3.67;;;14.50;99.90;;;;;;5054150;28;20037;-62
2022/10/27 02:40:15;;;;;;;11.55;3.38;;;14.40;99.90;;;;;;5054232;28;20037;-62
2022/10/27 02:42:42;;;;;;;11.75;3.13;;;14.40;99.90;;;;;;5053037;28;20042;-63
2022/10/27 02:45:09;;;;;;;9.07;3.47;;;14.40;99.90;;;;;;5053108;28;20403;-62
2022/10/27 02:47:35;;;;;;;10.27;3.78;;;14.40;99.90;;;;;;5054441;28;20049;-61
2022/10/27 02:50:02;;;;;;;13.13;3.63;;;14.40;99.90;;;;;;5054102;28;20139;-62
2022/10/27 02:52:29;;;;;;;14.20;4.00;;;14.40;99.90;;;;;;5042639;28;20069;-61
2022/10/27 02:54:55;;;;;;;8.90;4.05;;;14.40;99.90;;;;;;5042760;28;20065;-62
2022/10/27 02:57:22;;;;;;;11.88;3.92;;;14.40;99.90;;;;;;5054217;28;20555;-61
2022/10/27 02:59:49;;;;;;;9.77;3.80;;;14.40;99.90;;;;;;5053813;28;20061;-61
2022/10/27 03:02:21;;;;;;;13.52;4.30;;;14.40;99.90;;;;;;5054024;28;20538;-61
2022/10/27 03:04:49;;;;;;;11.38;4.10;;;14.40;99.90;;;;;;5034250;28;20044;-61
2022/10/27 03:07:16;;;;;;;10.65;4.47;;;14.40;99.90;;;;;;5033744;28;20069;-62
2022/10/27 03:09:42;;;;;;;13.30;4.68;;;14.40;99.90;;;;;;5034066;28;20140;-63
2022/10/27 03:12:09;;;;;;;10.82;4.20;;;14.40;99.90;;;;;;5041878;28;20520;-61
2022/10/27 03:14:36;;;;;;;10.30;4.80;;;14.40;99.90;;;;;;5052843;28;20136;-61
2022/10/27 03:17:02;;;;;;;13.45;4.63;;;14.30;99.90;;;;;;5053488;28;20072;-61
2022/10/27 03:19:29;;;;;;;15.90;5.15;;;14.40;99.90;;;;;;5036516;28;20120;-61
2022/10/27 03:21:56;;;;;;;10.68;5.15;;;14.30;99.90;;;;;;5040253;28;20064;-62
2022/10/27 03:24:22;;;;;;;10.02;4.72;;;14.30;99.90;;;;;;5053619;28;20124;-61
2022/10/27 03:26:49;;;;;;;13.80;5.07;;;14.40;99.90;;;;;;5053407;28;20068;-60
2022/10/27 03:29:16;;;;;;;12.82;5.32;;;14.30;99.90;;;;;;5053332;28;20047;-61
2022/10/27 03:31:42;;;;;;;12.45;5.57;;;14.40;99.90;;;;;;5053652;28;20102;-61
2022/10/27 03:34:09;;;;;;;9.23;4.65;;;14.30;99.90;;;;;;5053109;28;20116;-61
2022/10/27 03:36:36;;;;;;;11.05;4.85;;;14.30;99.90;;;;;;5053715;28;20136;-61
2022/10/27 03:39:03;;;;;;;9.93;4.03;;;14.30;99.90;;;;;;5051694;28;20041;-61
2022/10/27 03:41:29;;;;;;;9.52;3.53;;;14.40;99.90;;;;;;5035092;28;20045;-61
2022/10/27 03:43:56;;;;;;;13.23;4.10;;;14.30;99.90;;;;;;5033334;28;20124;-61
2022/10/27 03:46:23;;;;;;;8.65;3.92;;;14.30;99.90;;;;;;5033316;28;20049;-62
2022/10/27 03:48:49;;;;;;;9.65;3.50;;;14.30;99.90;;;;;;5033690;28;20038;-61
2022/10/27 03:51:16;;;;;;;7.82;3.22;;;14.30;99.90;;;;;;5033716;28;20120;-62
2022/10/27 03:53:43;;;;;;;8.10;3.33;;;14.30;99.90;;;;;;5033040;28;20072;-60
2022/10/27 03:56:09;;;;;;;10.18;2.85;;;14.40;99.90;;;;;;5038669;28;20033;-61
2022/10/27 03:58:36;;;;;;;13.40;3.22;;;14.40;99.90;;;;;;5053192;28;20522;-61
2022/10/27 04:01:03;;;;;;;10.35;2.88;;;14.40;99.90;;;;;;5053620;28;20037;-61
2022/10/27 04:03:30;;;;;;;10.73;3.03;;;14.40;99.90;;;;;;5040217;28;20041;-61
2022/10/27 04:05:56;;;;;;;13.32;3.20;;;14.40;99.90;;;;;;5033321;28;20113;-61
2022/10/27 04:08:23;;;;;;;8.25;2.92;;;14.40;99.90;;;;;;5033004;28;20045;-62
2022/10/27 04:10:50;;;;;;;9.63;3.08;;;14.40;99.90;;;;;;5052384;28;20049;-61
2022/10/27 04:13:16;;;;;;;9.90;3.10;;;14.40;99.90;;;;;;5053599;28;20388;-62
2022/10/27 04:15:43;;;;;;;9.70;3.00;;;14.40;99.90;;;;;;5041816;28;20120;-62
2022/10/27 04:18:10;;;;;;;12.32;2.92;;;14.40;99.90;;;;;;5052891;28;20068;-61
2022/10/27 04:20:37;;;;;;;8.18;2.60;;;14.50;99.90;;;;;;5052131;28;20041;-62
2022/10/27 04:23:03;;;;;;;8.40;2.90;;;14.50;99.90;;;;;;5046279;28;20029;-62
2022/10/27 04:25:30;;;;;;;9.00;2.85;;;14.50;99.90;;;;;;5050777;28;20037;-62
2022/10/27 04:27:57;;;;;;;11.68;3.15;;;14.50;99.90;;;;;;5055401;28;20040;-62
2022/10/27 04:30:23;;;;;;;11.27;3.00;;;14.60;99.90;;;;;;5048955;28;20045;-60
2022/10/27 04:32:50;;;;;;;12.93;2.95;;;14.50;99.90;;;;;;5048394;28;20068;-62
2022/10/27 04:35:17;;;;;;;11.40;3.47;;;14.50;99.90;;;;;;5043956;28;20049;-60
2022/10/27 04:37:43;;;;;;;9.90;3.30;;;14.60;99.90;;;;;;5049862;28;20037;-60
2022/10/27 04:40:10;;;;;;;9.57;3.75;;;14.60;99.90;;;;;;5047807;28;20108;-61
2022/10/27 04:42:37;;;;;;;11.45;3.83;;;14.50;99.90;;;;;;5037188;28;20041;-61
2022/10/27 04:45:03;;;;;;;11.20;3.63;;;14.50;99.90;;;;;;5049652;28;20492;-61
2022/10/27 04:47:30;;;;;;;10.55;4.15;;;14.50;99.90;;;;;;5056205;28;20127;-62
2022/10/27 04:49:57;;;;;;;10.10;4.10;;;14.50;99.90;;;;;;5056389;28;20080;-61
2022/10/27 04:52:23;;;;;;;11.05;3.63;;;14.50;99.90;;;;;;5050603;28;20048;-61
2022/10/27 04:54:50;;;;;;;10.07;3.85;;;14.50;99.90;;;;;;5056288;28;20095;-62
2022/10/27 04:57:17;;;;;;;10.75;3.83;;;14.60;99.90;;;;;;5056358;28;20095;-61
2022/10/27 04:59:44;;;;;;;11.93;3.63;;;14.50;99.90;;;;;;5056211;28;20123;-62
2022/10/27 05:02:11;;;;;;;10.35;3.33;;;14.60;99.90;;;;;;5047825;28;20116;-62
2022/10/27 05:04:37;;;;;;;8.77;3.65;;;14.60;99.90;;;;;;5053806;28;20040;-62
2022/10/27 05:07:04;;;;;;;8.88;3.00;;;14.60;99.90;;;;;;5045045;28;20493;-61
2022/10/27 05:09:31;;;;;;;10.60;3.25;;;14.60;99.90;;;;;;5046676;28;20077;-60
2022/10/27 05:11:57;;;;;;;11.57;2.63;;;14.60;99.90;;;;;;5037119;28;20046;-61
2022/10/27 05:14:24;;;;;;;11.13;2.60;;;14.50;99.90;;;;;;5036113;28;20087;-61
2022/10/27 05:16:51;;;;;;;13.50;3.70;;;14.50;99.90;;;;;;5035575;28;20057;-61
2022/10/27 05:19:17;;;;;;;13.15;3.17;;;14.50;99.90;;;;;;5035613;28;20037;-60
2022/10/27 05:21:44;;;;;;;9.35;2.80;;;14.50;99.90;;;;;;5037073;28;20503;-60
2022/10/27 05:24:11;;;;;;;7.85;2.13;;;14.50;99.90;;;;;;5036292;28;20072;-61
2022/10/27 05:26:37;;;;;;;10.23;2.70;;;14.50;99.90;;;;;;5035891;28;20116;-61
2022/10/27 05:29:04;;;;;;;9.25;2.33;;;14.50;99.90;;;;;;5036015;28;20120;-61
2022/10/27 05:31:31;;;;;;;8.18;2.10;;;14.50;99.90;;;;;;5037324;28;20398;-61
2022/10/27 05:33:58;;;;;;;10.43;2.40;;;14.50;99.90;;;;;;5038137;28;20048;-61
2022/10/27 05:36:25;;;;;;;9.68;2.60;;;14.40;99.90;;;;;;5054030;28;20037;-61
2022/10/27 05:38:52;;;;;;;7.80;2.28;;;14.40;99.90;;;;;;5049241;28;20108;-61
2022/10/27 05:41:19;;;;;;;5.25;2.00;;;14.40;99.90;;;;;;5055614;28;20048;-61
2022/10/27 05:43:45;;;;;;;9.70;2.13;;;14.50;99.90;;;;;;5052221;28;20171;-62
2022/10/27 05:46:13;;;;;;;8.80;2.42;;;14.50;99.90;;;;;;5055692;28;20037;-62
2022/10/27 05:48:41;;;;;;;8.07;2.08;;;14.50;99.90;;;;;;5051002;28;20129;-61
2022/10/27 05:51:07;;;;;;;9.95;2.28;;;14.50;99.90;;;;;;5050226;28;20037;-61
2022/10/27 05:53:34;;;;;;;5.63;2.20;;;14.50;99.90;;;;;;5053670;28;20041;-61
2022/10/27 05:56:01;;;;;;;7.00;2.47;;;14.60;99.90;;;;;;5053038;28;20059;-61
2022/10/27 05:58:27;;;;;;;8.82;2.30;;;14.60;99.90;;;;;;5054994;28;20575;-62
2022/10/27 06:00:54;;;;;;;8.38;2.42;;;14.60;99.90;;;;;;5049962;28;20132;-61
2022/10/27 06:03:21;;;;;;;9.63;2.10;;;14.60;99.90;;;;;;5035737;28;20037;-60
2022/10/27 06:05:48;;;;;;;10.73;2.45;;;14.70;99.90;;;;;;5034903;28;20049;-61
2022/10/27 06:08:14;;;;;;;11.68;2.22;;;14.70;99.90;;;;;;5036057;28;20085;-60
2022/10/27 06:10:41;;;;;;;7.60;2.13;;;14.70;99.90;;;;;;5036395;28;20081;-62
2022/10/27 06:13:08;;;;;;;8.32;2.50;;;14.80;99.90;;;;;;5034891;28;20121;-61
2022/10/27 06:15:34;;;;;;;11.00;2.92;;;14.80;99.90;;;;;;5036388;28;20120;-63
2022/10/27 06:18:01;;;;;;;10.90;3.08;;;14.90;99.90;;;;;;5050529;28;20124;-60
2022/10/27 06:20:28;;;;;;;14.88;3.35;;;14.90;99.90;;;;;;5055194;28;20404;-61
2022/10/27 06:22:55;;;;;;;9.18;2.40;;;15.00;99.90;;;;;;5050264;28;20112;-61
2022/10/27 06:25:21;;;;;;;10.90;2.42;;;15.00;99.90;;;;;;5050163;28;20037;-62
2022/10/27 06:27:48;;;;;;;8.55;2.17;;;15.10;99.90;;;;;;5045711;28;20129;-60
2022/10/27 06:30:16;;;;;;;10.07;2.03;;;15.10;99.90;;;;;;5039054;28;20038;-61
2022/10/27 06:32:42;;;;;;;7.97;2.13;;;15.10;99.90;;;;;;5044139;28;20465;-62
2022/10/27 06:35:09;;;;;;;8.45;2.30;;;15.20;99.90;;;;;;5036025;28;20120;-61
2022/10/27 06:37:36;;;;;;;6.82;1.80;;;15.20;99.90;;;;;;5068684;28;20045;-61
2022/10/27 06:40:02;;;;;;;11.55;2.28;;;15.20;99.90;;;;;;5041970;28;20034;-61
2022/10/27 06:42:29;;;;;;;7.82;2.10;;;15.30;99.90;;;;;;5038637;28;20156;-61
2022/10/27 06:45:15;;;;;;;6.53;2.03;;;15.30;99.90;;;;;;5034644;28;20041;-61
2022/10/27 06:47:41;;;;;;;8.48;2.25;;;15.30;99.90;;;;;;5044328;28;20130;-62
2022/10/27 06:50:08;;;;;;;6.57;1.90;;;15.40;99.90;;;;;;5049071;28;20069;-61
2022/10/27 06:52:35;;;;;;;10.95;2.00;;;15.40;99.90;;;;;;5052843;28;20329;-62
2022/10/27 06:55:01;;;;;;;6.55;2.17;;;15.40;99.90;;;;;;5050836;28;20562;-61
2022/10/27 06:57:28;;;;;;;6.35;1.70;;;15.40;99.90;;;;;;5039356;28;20049;-61
2022/10/27 06:59:55;;;;;;;6.40;1.90;;;15.40;99.90;;;;;;5052066;28;20091;-61
2022/10/27 07:02:22;;;;;;;7.45;1.95;;;15.40;99.90;;;;;;5052876;28;20063;-61
2022/10/27 07:04:49;;;;;;;8.90;2.38;;;15.40;99.90;;;;;;5053360;28;20090;-61
2022/10/27 07:07:16;;;;;;;10.88;2.00;;;15.50;99.90;;;;;;5052754;28;20480;-63
2022/10/27 07:09:42;;;;;;;8.75;2.10;;;15.50;99.90;;;;;;5053027;28;20095;-61
2022/10/27 07:12:09;;;;;;;7.97;2.20;;;15.50;99.90;;;;;;5052708;28;20041;-61
2022/10/27 07:14:36;;;;;;;7.80;2.45;;;15.50;99.90;;;;;;5052519;28;20488;-61
2022/10/27 07:17:03;;;;;;;9.43;2.10;;;15.50;99.90;;;;;;5052285;28;20068;-60
2022/10/27 07:19:29;;;;;;;10.45;2.38;;;15.50;99.90;;;;;;5052481;28;20127;-62
2022/10/27 07:21:56;;;;;;;10.07;2.72;;;15.50;99.90;;;;;;5052786;28;20041;-61
2022/10/27 07:24:23;;;;;;;8.80;3.00;;;15.50;99.90;;;;;;5053279;28;20069;-60
2022/10/27 07:26:50;;;;;;;6.38;2.65;;;15.50;99.90;;;;;;5052091;28;20045;-59
2022/10/27 07:29:16;;;;;;;23.90;18.65;;;15.50;99.90;;;;;;5051339;28;20441;-60
2022/10/27 07:31:43;;;;;;;9.88;4.38;;;15.60;99.90;;;;;;5051755;28;20048;-60
2022/10/27 07:34:10;;;;;;;6.70;2.75;;;15.50;99.90;;;;;;5050098;28;20488;-60
2022/10/27 07:36:37;;;;;;;11.18;2.85;;;15.60;99.90;;;;;;5048741;28;20388;-61
2022/10/27 07:39:03;;;;;;;13.35;3.05;;;15.60;99.90;;;;;;5051082;28;20041;-61
2022/10/27 07:41:30;;;;;;;11.20;3.20;;;15.60;99.90;;;;;;5051563;28;20136;-61
2022/10/27 07:43:57;;;;;;;10.63;2.60;;;15.60;99.90;;;;;;5050892;28;20115;-61
2022/10/27 07:46:23;;;;;;;15.40;2.83;;;15.60;99.90;;;;;;5051666;28;20120;-60
2022/10/27 07:48:50;;;;;;;48.33;4.57;;;15.60;99.90;;;;;;5052153;28;20119;-60
2022/10/27 07:51:17;;;;;;;12.48;4.47;;;15.60;99.90;;;;;;5052370;28;20072;-61
2022/10/27 07:53:43;;;;;;;11.98;2.72;;;15.60;99.90;;;;;;5051656;28;20370;-61
2022/10/27 07:56:10;;;;;;;8.50;2.22;;;15.60;99.90;;;;;;5052299;28;20151;-61
2022/10/27 07:58:37;;;;;;;9.43;2.53;;;15.70;99.90;;;;;;5052320;28;20079;-61
2022/10/27 08:01:04;;;;;;;8.23;2.40;;;15.70;99.90;;;;;;5053881;28;20041;-60
2022/10/27 08:03:31;;;;;;;8.07;2.67;;;15.70;99.90;;;;;;5055277;28;20159;-60
2022/10/27 08:05:57;;;;;;;9.63;2.70;;;15.70;99.90;;;;;;5056006;28;20051;-60
2022/10/27 08:08:24;;;;;;;10.35;2.70;;;15.70;99.90;;;;;;5056121;28;20068;-60
2022/10/27 08:10:51;;;;;;;8.23;3.08;;;15.70;99.90;;;;;;5055858;28;20519;-60
2022/10/27 08:13:18;;;;;;;8.32;2.50;;;15.70;99.90;;;;;;5055881;28;20088;-61
2022/10/27 08:15:44;;;;;;;8.23;2.40;;;15.80;99.90;;;;;;5055892;28;20056;-60
2022/10/27 08:18:11;;;;;;;12.00;2.72;;;15.80;99.90;;;;;;5055881;28;20041;-61
2022/10/27 08:20:38;;;;;;;11.98;2.65;;;15.80;99.90;;;;;;5055799;28;20041;-62
2022/10/27 08:23:05;;;;;;;10.57;2.80;;;15.90;99.90;;;;;;5055623;28;20128;-63
2022/10/27 08:25:31;;;;;;;7.03;2.60;;;15.90;99.90;;;;;;5055692;28;20496;-61
2022/10/27 08:27:58;;;;;;;8.82;2.97;;;15.90;99.90;;;;;;5054511;28;20412;-61
2022/10/27 08:30:25;;;;;;;9.48;3.58;;;15.90;99.90;;;;;;5055878;28;20450;-62
2022/10/27 08:32:51;;;;;;;7.53;3.00;;;16.00;99.90;;;;;;5055367;28;20095;-61
2022/10/27 08:35:18;;;;;;;16.75;4.63;;;16.00;99.90;;;;;;5055469;28;20063;-61
2022/10/27 08:37:45;;;;;;;11.32;3.20;;;16.10;99.90;;;;;;5055715;28;20045;-61
2022/10/27 08:40:12;;;;;;;8.48;3.10;;;16.10;99.90;;;;;;5054176;28;20041;-60
2022/10/27 08:42:39;;;;;;;15.43;3.38;;;16.20;99.90;;;;;;5054761;28;20111;-61
2022/10/27 08:45:05;;;;;;;13.07;3.13;;;16.30;99.90;;;;;;5055112;28;20550;-61
2022/10/27 08:47:32;;;;;;;17.70;3.10;;;16.40;99.90;;;;;;5054476;28;20043;-62
2022/10/27 08:49:59;;;;;;;10.20;3.03;;;16.40;99.90;;;;;;5053997;28;20480;-62
2022/10/27 08:52:25;;;;;;;9.05;3.05;;;16.50;99.90;;;;;;5051143;28;20142;-61
2022/10/27 08:54:52;;;;;;;10.88;2.80;;;16.50;99.90;;;;;;5053972;28;20072;-62
2022/10/27 08:57:19;;;;;;;13.77;3.08;;;16.50;99.90;;;;;;5055345;28;20076;-60
2022/10/27 08:59:46;;;;;;;8.48;2.72;;;16.60;99.90;;;;;;5055064;28;20091;-60
2022/10/27 09:02:12;;;;;;;12.30;3.00;;;16.60;99.90;;;;;;5042814;28;20048;-61
2022/10/27 09:04:43;;;;;;;12.80;2.75;;;16.70;99.90;;;;;;5054764;28;20139;-61
2022/10/27 09:07:10;;;;;;;7.00;2.80;;;16.70;99.90;;;;;;5055069;28;20128;-61
2022/10/27 09:09:36;;;;;;;12.70;3.53;;;16.80;99.90;;;;;;5054742;28;20484;-61
2022/10/27 09:12:03;;;;;;;11.77;5.00;;;16.80;99.90;;;;;;5053674;28;20064;-61
2022/10/27 09:14:30;;;;;;;16.60;4.28;;;16.90;99.90;;;;;;5054546;28;20128;-61
2022/10/27 09:16:56;;;;;;;13.77;3.30;;;16.90;99.90;;;;;;5054582;28;20132;-60
2022/10/27 09:19:23;;;;;;;12.60;3.00;;;16.90;99.90;;;;;;5054838;28;20037;-62
2022/10/27 09:21:50;;;;;;;14.05;3.38;;;16.90;99.90;;;;;;5054694;28;20045;-62
2022/10/27 09:24:17;;;;;;;11.80;2.83;;;16.90;99.90;;;;;;5054411;28;20090;-61
2022/10/27 09:26:43;;;;;;;29.10;4.30;;;17.00;99.90;;;;;;5054592;28;20041;-61
2022/10/27 09:29:11;;;;;;;13.15;2.78;;;17.00;99.90;;;;;;5054542;28;20047;-61
2022/10/27 09:31:37;;;;;;;12.05;3.10;;;17.00;99.90;;;;;;5053978;28;20594;-61
2022/10/27 09:34:04;;;;;;;8.85;2.70;;;17.10;99.90;;;;;;5050547;28;20044;-61
2022/10/27 09:36:31;;;;;;;11.77;2.80;;;17.10;99.90;;;;;;5054346;28;20092;-59
2022/10/27 09:38:57;;;;;;;23.38;3.40;;;17.20;99.90;;;;;;5054127;28;20098;-60
2022/10/27 09:41:24;;;;;;;13.45;3.22;;;17.30;99.90;;;;;;5054348;28;20096;-60
2022/10/27 09:43:51;;;;;;;9.00;2.90;;;17.30;99.90;;;;;;5052879;28;20487;-62
2022/10/27 09:46:24;;;;;;;14.63;3.83;;;17.30;99.90;;;;;;5054078;28;20048;-60
2022/10/27 09:48:50;;;;;;;10.48;2.80;;;17.40;99.90;;;;;;5041524;28;20516;-61
2022/10/27 09:51:17;;;;;;;9.05;2.60;;;17.40;99.90;;;;;;5052302;28;20102;-61
2022/10/27 09:53:45;;;;;;;13.45;3.10;;;17.40;99.90;;;;;;5054008;28;20120;-61
2022/10/27 09:56:12;;;;;;;12.93;3.05;;;17.50;99.90;;;;;;5054487;28;20045;-61
2022/10/27 09:58:43;;;;;;;15.70;2.90;;;17.50;99.90;;;;;;5054070;28;20037;-60
2022/10/27 10:01:09;;;;;;;14.15;3.05;;;17.50;99.90;;;;;;5054456;28;20410;-61
2022/10/27 10:03:36;;;;;;;9.60;3.33;;;17.60;99.90;;;;;;5053854;28;20033;-61
2022/10/27 10:06:03;;;;;;;13.77;6.05;;;17.60;99.90;;;;;;5054738;28;20037;-62
2022/10/27 10:08:30;;;;;;;16.27;3.60;;;17.70;99.90;;;;;;5053822;28;20119;-61
2022/10/27 10:10:57;;;;;;;12.77;3.10;;;17.70;99.90;;;;;;5054299;28;20048;-61
2022/10/27 10:13:23;;;;;;;10.35;3.08;;;17.80;99.90;;;;;;5053541;28;20044;-62
2022/10/27 10:15:50;;;;;;;14.02;3.08;;;17.80;99.90;;;;;;5054417;28;20411;-61
2022/10/27 10:18:17;;;;;;;9.90;2.88;;;17.90;99.90;;;;;;5053796;28;20052;-62
2022/10/27 10:20:43;;;;;;;9.48;2.78;;;17.90;99.90;;;;;;5053913;28;20099;-62
2022/10/27 10:23:10;;;;;;;13.57;2.78;;;18.00;99.90;;;;;;5054246;28;20413;-61
2022/10/27 10:25:37;;;;;;;8.90;2.80;;;18.10;99.90;;;;;;5053459;28;20045;-61
2022/10/27 10:28:04;;;;;;;9.27;3.13;;;18.10;99.90;;;;;;5054307;28;20061;-61
2022/10/27 10:30:30;;;;;;;11.10;3.03;;;18.20;99.90;;;;;;5053451;28;20064;-61
2022/10/27 10:32:57;;;;;;;10.55;3.03;;;18.30;99.90;;;;;;5054149;28;20041;-61
2022/10/27 10:35:24;;;;;;;9.75;3.10;;;18.40;99.90;;;;;;5053577;28;20076;-61
2022/10/27 10:37:51;;;;;;;11.85;2.88;;;18.50;99.90;;;;;;5054012;28;20045;-60
2022/10/27 10:40:18;;;;;;;14.20;2.67;;;18.50;99.90;;;;;;5052080;28;20037;-60
2022/10/27 10:42:44;;;;;;;10.15;2.50;;;18.50;99.90;;;;;;5053243;28;20657;-60
2022/10/27 10:45:11;;;;;;;9.38;2.65;;;18.60;99.90;;;;;;5053100;28;20115;-60
2022/10/27 10:47:38;;;;;;;13.80;2.55;;;18.60;99.90;;;;;;5053544;28;20041;-60
2022/10/27 10:50:05;;;;;;;13.02;2.70;;;18.70;99.90;;;;;;5053161;28;20072;-61
2022/10/27 10:52:31;;;;;;;16.75;7.13;;;18.70;99.90;;;;;;5053710;28;20045;-61
2022/10/27 10:54:58;;;;;;;16.05;6.93;;;18.80;99.90;;;;;;5052919;28;20045;-61
2022/10/27 10:57:25;;;;;;;11.40;3.88;;;18.90;99.90;;;;;;5053359;28;20049;-62
2022/10/27 10:59:56;;;;;;;14.10;2.80;;;19.00;99.90;;;;;;5049044;28;20429;-61
2022/10/27 11:02:22;;;;;;;9.88;2.63;;;19.10;99.90;;;;;;5051853;28;20044;-60
2022/10/27 11:04:49;;;;;;;8.95;3.17;;;19.10;99.90;;;;;;5052292;28;20120;-60
2022/10/27 11:07:16;;;;;;;9.48;2.40;;;19.20;99.90;;;;;;5052162;28;20040;-60
2022/10/27 11:09:42;;;;;;;9.23;2.50;;;19.20;99.90;;;;;;5053010;28;20049;-61
2022/10/27 11:12:09;;;;;;;8.50;2.70;;;19.20;99.90;;;;;;5051809;28;20041;-62
2022/10/27 11:14:36;;;;;;;11.82;2.75;;;19.20;99.90;;;;;;5052829;28;20045;-61
2022/10/27 11:17:03;;;;;;;7.72;2.47;;;19.20;99.90;;;;;;5052795;28;20051;-61
2022/10/27 11:19:29;;;;;;;9.25;2.53;;;19.20;99.90;;;;;;5052178;28;20040;-61
2022/10/27 11:21:57;;;;;;;8.23;2.40;;;19.20;99.90;;;;;;5052549;28;20033;-61
2022/10/27 11:24:24;;;;;;;13.15;2.88;;;19.20;99.90;;;;;;5046465;28;20032;-60
2022/10/27 11:26:51;;;;;;;11.45;2.80;;;19.20;99.90;;;;;;5046344;28;20037;-60
2022/10/27 11:29:17;;;;;;;50.50;3.47;;;19.20;99.90;;;;;;5052030;28;20506;-61
2022/10/27 11:31:44;;;;;;;8.15;2.10;;;19.20;99.90;;;;;;5052449;28;20049;-60
2022/10/27 11:34:11;;;;;;;9.05;2.20;;;19.20;99.90;;;;;;5052744;28;20066;-62
2022/10/27 11:36:38;;;;;;;10.07;2.20;;;19.20;99.90;;;;;;5052047;28;20132;-62
2022/10/27 11:39:04;;;;;;;9.05;2.55;;;19.10;99.90;;;;;;5051627;28;20065;-61
2022/10/27 11:41:31;;;;;;;7.70;2.45;;;19.10;99.90;;;;;;5053272;28;20068;-63
2022/10/27 11:43:58;;;;;;;28.60;3.55;;;19.10;99.90;;;;;;5053044;28;20086;-63
2022/10/27 11:46:34;;;;;;;9.48;2.17;;;19.20;99.90;;;;;;5053075;28;20480;-62
2022/10/27 11:49:01;;;;;;;15.48;2.33;;;19.20;99.90;;;;;;5053283;28;20041;-64
2022/10/27 11:51:27;;;;;;;9.13;2.78;;;19.20;99.90;;;;;;5053022;28;20417;-62
2022/10/27 11:53:55;;;;;;;8.25;2.30;;;19.20;99.90;;;;;;5052640;28;20065;-62
2022/10/27 11:56:22;;;;;;;8.27;2.10;;;19.20;99.90;;;;;;5051570;28;20049;-63
2022/10/27 11:58:48;;;;;;;9.50;2.20;;;19.20;99.90;;;;;;5052581;28;20140;-61
2022/10/27 12:01:15;;;;;;;7.82;2.30;;;19.20;99.90;;;;;;5053130;28;20116;-61
2022/10/27 12:03:42;;;;;;;9.18;2.33;;;19.20;99.90;;;;;;5052794;28;20388;-61
2022/10/27 12:06:15;;;;;;;8.27;2.30;;;19.20;99.90;;;;;;5052316;28;20049;-62
2022/10/27 12:08:41;;;;;;;8.90;2.45;;;19.20;99.90;;;;;;5052780;28;20492;-62
2022/10/27 12:11:08;;;;;;;9.82;2.65;;;19.30;99.90;;;;;;5051855;28;20075;-61
2022/10/27 12:13:35;;;;;;;10.95;2.65;;;19.30;99.90;;;;;;5052631;28;20116;-62
2022/10/27 12:16:01;;;;;;;11.18;2.45;;;19.30;99.90;;;;;;5051946;28;20112;-62
2022/10/27 12:18:29;;;;;;;12.15;2.80;;;19.30;99.90;;;;;;5050751;28;20055;-61
2022/10/27 12:20:55;;;;;;;10.48;2.92;;;19.40;99.90;;;;;;5052645;28;20037;-63
2022/10/27 12:23:22;;;;;;;8.73;2.38;;;19.40;99.90;;;;;;5052524;28;20511;-61
2022/10/27 12:25:49;;;;;;;7.53;2.13;;;19.40;99.90;;;;;;5052384;28;20091;-61
2022/10/27 12:28:16;;;;;;;9.73;2.53;;;19.40;99.90;;;;;;5051971;28;20069;-61
2022/10/27 12:30:42;;;;;;;14.65;2.40;;;19.50;99.90;;;;;;5052623;28;20056;-62
2022/10/27 12:33:09;;;;;;;10.20;2.53;;;19.50;99.90;;;;;;5051948;28;20067;-62
2022/10/27 12:35:36;;;;;;;9.65;2.38;;;19.50;99.90;;;;;;5052463;28;20115;-61
2022/10/27 12:38:02;;;;;;;9.05;2.33;;;19.60;99.90;;;;;;5052790;28;20068;-61